Time;durP1;ratioP1;P1;durP2;ratioP2;P2;SDS_P1;SDS_P2;PMS_P1;PMS_P2;Temp;Humidity;BMP_temperature;BMP_pressure;BME280_temperature;BME280_humidity;BME280_pressure;Samples;Min_cycle;Max_cycle;Signal;HPM_P1;HPM_P2
2022/01/05 00:00:11;;;;;;;2.97;0.70;;;;;;;3.45;100.00;98779.91;5069831;28;20539;-75
2022/01/05 00:02:36;;;;;;;0.70;0.63;;;;;;;3.44;100.00;98772.91;5071099;28;20177;-76
2022/01/05 00:05:03;;;;;;;0.40;0.40;;;;;;;3.44;100.00;98778.31;5068754;28;20273;-76
2022/01/05 00:07:28;;;;;;;1.23;0.73;;;;;;;3.43;100.00;98779.41;5068849;28;20190;-76
2022/01/05 00:09:54;;;;;;;1.70;1.10;;;;;;;3.41;100.00;98770.03;5070970;28;20170;-76
2022/01/05 00:12:19;;;;;;;0.67;0.67;;;;;;;3.40;100.00;98769.22;5070963;28;20604;-75
2022/01/05 00:14:44;;;;;;;1.70;0.17;;;;;;;3.40;100.00;98776.53;5069309;28;20658;-75
2022/01/05 00:17:10;;;;;;;0.33;0.33;;;;;;;3.38;100.00;98774.16;5070804;28;20188;-75
2022/01/05 00:19:36;;;;;;;5.00;1.63;;;;;;;3.38;100.00;98773.34;5070775;28;20460;-76
2022/01/05 00:22:02;;;;;;;1.13;1.03;;;;;;;3.38;100.00;98784.94;5070838;28;20269;-76
2022/01/05 00:24:27;;;;;;;0.93;0.90;;;;;;;3.37;100.00;98783.34;5070659;28;20392;-75
2022/01/05 00:26:53;;;;;;;1.53;1.40;;;;;;;3.38;100.00;98776.03;5070559;28;20186;-75
2022/01/05 00:29:18;;;;;;;2.00;1.20;;;;;;;3.40;100.00;98782.72;5069255;28;20634;-75
2022/01/05 00:31:44;;;;;;;4.63;0.53;;;;;;;3.39;100.00;98770.34;5070666;28;20177;-77
2022/01/05 00:34:09;;;;;;;0.90;0.90;;;;;;;3.39;100.00;98766.84;5070481;28;20179;-75
2022/01/05 00:36:34;;;;;;;1.80;0.40;;;;;;;3.40;100.00;98771.13;5070495;28;20177;-77
2022/01/05 00:39:00;;;;;;;2.80;0.27;;;;;;;3.40;100.00;98777.31;5070721;28;20652;-75
2022/01/05 00:41:25;;;;;;;1.93;1.03;;;;;;;3.40;100.00;98776.53;5070402;28;20175;-74
2022/01/05 00:43:50;;;;;;;0.63;0.60;;;;;;;3.41;100.00;98781.63;5069315;28;20197;-75
2022/01/05 00:46:16;;;;;;;0.40;0.40;;;;;;;3.41;100.00;98783.53;5069073;28;20225;-75
2022/01/05 00:48:41;;;;;;;0.50;0.30;;;;;;;3.40;100.00;98780.03;5070814;28;20205;-75
2022/01/05 00:51:08;;;;;;;1.03;0.70;;;;;;;3.39;100.00;98785.72;5070619;28;20205;-75
2022/01/05 00:53:34;;;;;;;0.90;0.70;;;;;;;3.40;100.00;98781.94;5069170;28;20182;-75
2022/01/05 00:56:00;;;;;;;1.53;0.47;;;;;;;3.41;100.00;98781.63;5070225;28;20622;-77
2022/01/05 00:58:26;;;;;;;0.50;0.20;;;;;;;3.39;100.00;98783.84;5070456;28;20311;-75
2022/01/05 01:00:51;;;;;;;1.20;0.60;;;;;;;3.41;100.00;98780.81;5070290;28;20764;-75
2022/01/05 01:03:17;;;;;;;0.37;0.37;;;;;;;3.38;100.00;98790.34;5071275;28;20193;-75
2022/01/05 01:05:42;;;;;;;0.30;0.30;;;;;;;3.35;100.00;98790.16;5072854;28;20180;-74
2022/01/05 01:08:09;;;;;;;2.07;0.80;;;;;;;3.34;100.00;98783.97;5074306;28;20235;-75
2022/01/05 01:10:35;;;;;;;0.00;0.00;;;;;;;3.33;100.00;98795.88;5074324;28;20166;-74
2022/01/05 01:13:00;;;;;;;0.63;0.33;;;;;;;3.28;100.00;98799.44;5072863;28;20261;-75
2022/01/05 01:15:25;;;;;;;0.10;0.10;;;;;;;3.27;100.00;98792.47;5073848;28;20212;-75
2022/01/05 01:17:51;;;;;;;0.63;0.43;;;;;;;3.25;100.00;98797.38;5073988;28;20262;-75
2022/01/05 01:20:16;;;;;;;1.67;0.47;;;;;;;3.26;100.00;98800.84;5074611;28;20174;-75
2022/01/05 01:22:42;;;;;;;1.33;0.40;;;;;;;3.23;100.00;98802.28;5073985;28;20638;-75
2022/01/05 01:25:09;;;;;;;0.10;0.10;;;;;;;3.18;100.00;98791.59;5072528;28;20182;-75
2022/01/05 01:27:35;;;;;;;0.10;0.00;;;;;;;3.19;100.00;98787.78;5073730;28;20183;-75
2022/01/05 01:30:01;;;;;;;0.20;0.20;;;;;;;3.19;100.00;98785.09;5073879;28;20222;-75
2022/01/05 01:32:26;;;;;;;2.47;0.50;;;;;;;3.18;100.00;98774.59;5072460;28;20178;-76
2022/01/05 01:34:51;;;;;;;0.80;0.77;;;;;;;3.19;100.00;98792.41;5073524;28;20234;-75
2022/01/05 01:37:17;;;;;;;0.20;0.20;;;;;;;3.16;100.00;98784.88;5073823;28;20182;-75
2022/01/05 01:39:42;;;;;;;0.00;0.00;;;;;;;3.16;100.00;98787.59;5073568;28;20606;-75
2022/01/05 01:42:08;;;;;;;0.00;0.00;;;;;;;3.14;100.00;98787.09;5073502;28;20276;-75
2022/01/05 01:44:33;;;;;;;0.60;0.30;;;;;;;3.14;100.00;98781.69;5073567;28;20255;-75
2022/01/05 01:46:58;;;;;;;0.20;0.20;;;;;;;3.12;100.00;98792.00;5073544;28;20190;-75
2022/01/05 01:49:24;;;;;;;0.20;0.20;;;;;;;3.11;100.00;98796.59;5072405;28;20725;-75
2022/01/05 01:51:49;;;;;;;0.70;0.33;;;;;;;3.11;100.00;98793.09;5072120;28;20174;-75
2022/01/05 01:54:15;;;;;;;0.97;0.30;;;;;;;3.10;100.00;98783.41;5073326;28;20181;-75
2022/01/05 01:56:41;;;;;;;2.53;0.67;;;;;;;3.12;100.00;98786.59;5073150;28;20175;-75
2022/01/05 01:59:07;;;;;;;1.17;0.80;;;;;;;3.13;100.00;98782.78;5073310;28;20177;-75
2022/01/05 02:01:33;;;;;;;6.67;1.00;;;;;;;3.13;100.00;98790.88;5073343;28;20209;-75
2022/01/05 02:03:58;;;;;;;10.67;0.70;;;;;;;3.11;100.00;98799.28;5073147;28;20202;-75
2022/01/05 02:06:23;;;;;;;2.40;0.53;;;;;;;3.10;100.00;98791.50;5073119;28;20255;-75
2022/01/05 02:08:49;;;;;;;4.33;1.30;;;;;;;3.11;100.00;98795.78;5073058;28;20171;-74
2022/01/05 02:11:15;;;;;;;0.93;0.27;;;;;;;3.12;100.00;98798.19;5072939;28;20688;-75
2022/01/05 02:13:41;;;;;;;1.80;1.30;;;;;;;3.11;100.00;98793.91;5073068;28;20179;-75
2022/01/05 02:16:07;;;;;;;0.93;0.47;;;;;;;3.08;100.00;98791.81;5071803;28;20654;-75
2022/01/05 02:20:59;;;;;;;1.33;0.30;;;;;;;3.04;100.00;98790.00;5073366;28;20178;-75
2022/01/05 02:23:25;;;;;;;0.10;0.10;;;;;;;3.01;100.00;98794.09;5072782;28;20190;-75
2022/01/05 02:25:50;;;;;;;0.87;0.53;;;;;;;3.01;100.00;98780.63;5072597;28;20173;-75
2022/01/05 02:28:15;;;;;;;3.30;0.70;;;;;;;3.01;100.00;98785.22;5072723;28;20179;-75
2022/01/05 02:30:42;;;;;;;1.60;0.63;;;;;;;3.00;100.00;98784.41;5072804;28;20174;-75
2022/01/05 02:33:08;;;;;;;0.40;0.20;;;;;;;3.01;100.00;98782.50;5072632;28;20307;-75
2022/01/05 02:35:33;;;;;;;4.23;2.10;;;;;;;2.99;100.00;98788.22;5072399;28;20666;-75
2022/01/05 02:37:59;;;;;;;9.33;0.60;;;;;;;3.00;100.00;98792.50;5072632;28;20853;-75
2022/01/05 02:40:25;;;;;;;0.13;0.13;;;;;;;3.00;100.00;98784.41;5072555;28;20171;-75
2022/01/05 02:42:56;;;;;;;1.37;1.27;;;;;;;3.02;100.00;98787.59;5071262;28;20631;-74
2022/01/05 02:45:21;;;;;;;1.80;0.93;;;;;;;3.01;100.00;98777.91;5072266;28;20253;-75
2022/01/05 02:47:48;;;;;;;2.13;1.00;;;;;;;3.02;100.00;98770.63;5072128;28;20725;-76
2022/01/05 02:50:14;;;;;;;2.13;1.93;;;;;;;3.00;100.00;98779.03;5071666;28;20582;-75
2022/01/05 02:52:40;;;;;;;1.20;0.50;;;;;;;2.96;100.00;98772.63;5072497;28;20653;-75
2022/01/05 02:55:07;;;;;;;0.40;0.30;;;;;;;2.97;100.00;98785.03;5072078;28;20590;-75
2022/01/05 02:57:32;;;;;;;7.00;1.57;;;;;;;2.93;100.00;98776.75;5072289;28;20174;-74
2022/01/05 02:59:58;;;;;;;0.17;0.17;;;;;;;2.91;100.00;98770.84;5072465;28;20174;-75
2022/01/05 03:02:23;;;;;;;3.70;0.17;;;;;;;2.88;100.00;98789.53;5070895;28;20170;-75
2022/01/05 03:04:48;;;;;;;0.87;0.87;;;;;;;2.86;100.00;98784.44;5071927;28;20204;-74
2022/01/05 03:07:16;;;;;;;1.90;1.03;;;;;;;2.87;100.00;98796.81;5072214;28;20177;-75
2022/01/05 03:09:42;;;;;;;12.87;1.20;;;;;;;2.83;100.00;98793.13;5070768;28;20654;-74
2022/01/05 03:12:08;;;;;;;0.93;0.30;;;;;;;2.82;100.00;98788.03;5072213;28;20696;-75
2022/01/05 03:14:33;;;;;;;16.23;0.83;;;;;;;2.79;100.00;98788.66;5070493;28;20166;-74
2022/01/05 03:16:58;;;;;;;3.90;0.87;;;;;;;2.79;100.00;98785.94;5070439;28;20208;-75
2022/01/05 03:19:24;;;;;;;2.37;0.53;;;;;;;2.78;100.00;98795.94;5071865;28;20174;-75
2022/01/05 03:21:49;;;;;;;2.37;2.17;;;;;;;2.78;100.00;98793.25;5068414;28;20178;-75
2022/01/05 03:24:15;;;;;;;0.80;0.80;;;;;;;2.78;100.00;98795.16;5069108;28;20189;-75
2022/01/05 03:26:40;;;;;;;0.77;0.63;;;;;;;2.78;100.00;98798.63;5050968;28;20175;-75
2022/01/05 03:29:05;;;;;;;0.20;0.20;;;;;;;2.78;100.00;98787.06;5051676;28;20573;-75
2022/01/05 03:31:31;;;;;;;0.10;0.10;;;;;;;2.78;100.00;98806.72;5067914;28;20201;-75
2022/01/05 03:33:56;;;;;;;1.60;0.70;;;;;;;2.78;100.00;98814.03;5071663;28;20166;-75
2022/01/05 03:36:22;;;;;;;0.30;0.30;;;;;;;2.79;100.00;98808.31;5071333;28;20558;-74
2022/01/05 03:38:47;;;;;;;1.27;0.97;;;;;;;2.80;100.00;98814.50;5071555;28;20194;-75
2022/01/05 03:41:13;;;;;;;0.10;0.10;;;;;;;2.82;100.00;98821.19;5071703;28;20524;-75
2022/01/05 03:43:39;;;;;;;0.83;0.70;;;;;;;2.81;100.00;98819.59;5071421;28;20174;-75
2022/01/05 03:46:04;;;;;;;2.03;0.63;;;;;;;2.78;100.00;98820.22;5071112;28;20588;-75
2022/01/05 03:48:30;;;;;;;14.47;0.87;;;;;;;2.83;99.51;98822.78;5071384;28;20206;-74
2022/01/05 03:50:55;;;;;;;0.30;0.30;;;;;;;2.83;99.39;98822.78;5071249;28;20187;-74
2022/01/05 03:53:20;;;;;;;0.37;0.37;;;;;;;2.84;99.36;98829.78;5069879;28;20254;-75
2022/01/05 03:55:47;;;;;;;2.50;0.73;;;;;;;2.85;98.89;98839.47;5070963;28;20313;-75
2022/01/05 03:58:13;;;;;;;0.20;0.20;;;;;;;2.87;98.53;98839.97;5069874;28;20179;-75
2022/01/05 04:00:42;;;;;;;1.43;1.33;;;;;;;2.86;98.58;98843.75;5071031;28;20178;-75
2022/01/05 04:03:08;;;;;;;2.23;2.00;;;;;;;2.87;97.37;98825.69;5071177;28;20182;-75
2022/01/05 04:05:33;;;;;;;0.23;0.23;;;;;;;2.85;97.51;98849.47;5070827;28;20179;-74
2022/01/05 04:07:58;;;;;;;0.87;0.50;;;;;;;2.86;96.96;98843.75;5070927;28;20174;-75
2022/01/05 04:10:24;;;;;;;0.23;0.23;;;;;;;2.84;96.90;98843.28;5070980;28;20175;-75
2022/01/05 04:12:50;;;;;;;1.80;0.93;;;;;;;2.86;96.79;98851.06;5071106;28;20182;-74
2022/01/05 04:15:17;;;;;;;3.60;0.57;;;;;;;2.86;95.96;98843.75;5069605;28;20684;-75
2022/01/05 04:17:43;;;;;;;0.93;0.30;;;;;;;2.86;96.14;98841.06;5069533;28;20836;-75
2022/01/05 04:20:10;;;;;;;0.10;0.10;;;;;;;2.83;96.20;98847.06;5069528;28;20179;-75
2022/01/05 04:22:35;;;;;;;5.00;1.97;;;;;;;2.84;95.81;98845.16;5066245;28;20195;-75
2022/01/05 04:25:01;;;;;;;2.13;1.50;;;;;;;2.88;95.42;98854.25;5050372;28;20178;-75
2022/01/05 04:27:26;;;;;;;0.40;0.30;;;;;;;2.88;95.50;98851.56;5050709;28;20175;-74
2022/01/05 04:29:51;;;;;;;0.30;0.30;;;;;;;2.84;95.84;98843.28;5082882;28;20666;-75
2022/01/05 04:32:17;;;;;;;12.33;0.63;;;;;;;2.81;95.71;98843.88;5059142;28;20269;-75
2022/01/05 04:34:42;;;;;;;7.83;0.87;;;;;;;2.83;94.24;98836.28;5070382;28;20452;-75
2022/01/05 04:37:07;;;;;;;0.67;0.37;;;;;;;2.84;93.71;98837.88;5069051;28;20209;-75
2022/01/05 04:39:34;;;;;;;1.77;0.57;;;;;;;2.83;93.72;98838.19;5049946;28;20210;-75
2022/01/05 04:42:00;;;;;;;1.17;0.80;;;;;;;2.80;93.97;98833.38;5064898;28;20192;-74
2022/01/05 04:44:26;;;;;;;0.53;0.53;;;;;;;2.77;93.81;98828.59;5069259;28;20178;-75
2022/01/05 04:46:51;;;;;;;0.30;0.27;;;;;;;2.78;94.09;98849.06;5070146;28;20178;-76
2022/01/05 04:49:17;;;;;;;5.83;0.77;;;;;;;2.73;94.21;98854.53;5070393;28;20174;-76
2022/01/05 04:51:42;;;;;;;0.83;0.83;;;;;;;2.71;94.38;98852.16;5070475;28;20175;-75
2022/01/05 04:54:08;;;;;;;0.00;0.00;;;;;;;2.66;95.27;98857.66;5069237;28;20174;-75
2022/01/05 04:56:33;;;;;;;6.60;0.83;;;;;;;2.61;95.02;98841.56;5068830;28;20241;-75
2022/01/05 04:58:59;;;;;;;1.27;0.30;;;;;;;2.61;94.26;98863.94;5070407;28;20181;-74
2022/01/05 05:01:24;;;;;;;0.67;0.60;;;;;;;2.58;94.72;98859.13;5070476;28;20698;-75
2022/01/05 05:03:50;;;;;;;0.77;0.77;;;;;;;2.54;94.71;98868.13;5070397;28;20182;-75
2022/01/05 05:06:16;;;;;;;0.17;0.17;;;;;;;2.53;94.37;98859.22;5070224;28;20221;-75
2022/01/05 05:08:41;;;;;;;0.20;0.10;;;;;;;2.50;94.65;98873.31;5070402;28;20420;-75
2022/01/05 05:11:06;;;;;;;2.23;0.60;;;;;;;2.48;94.93;98880.88;5065940;28;20194;-75
2022/01/05 05:13:32;;;;;;;0.50;0.50;;;;;;;2.47;94.46;98887.38;5069373;28;20175;-74
2022/01/05 05:15:57;;;;;;;0.17;0.10;;;;;;;2.47;94.33;98887.38;5070003;28;20742;-75
2022/01/05 05:18:22;;;;;;;0.30;0.30;;;;;;;2.46;94.16;98871.47;5070401;28;20224;-75
2022/01/05 05:20:48;;;;;;;2.87;2.13;;;;;;;2.44;94.09;98893.34;5068957;28;20533;-74
2022/01/05 05:23:13;;;;;;;0.13;0.13;;;;;;;2.41;94.07;98883.16;5070079;28;20197;-75
2022/01/05 05:25:39;;;;;;;0.30;0.30;;;;;;;2.34;94.50;98882.75;5069975;28;20175;-75
2022/01/05 05:28:04;;;;;;;0.40;0.30;;;;;;;2.30;94.51;98892.50;5070178;28;20630;-75
2022/01/05 05:30:30;;;;;;;0.00;0.00;;;;;;;2.25;94.76;98892.59;5068927;28;20197;-75
2022/01/05 05:32:57;;;;;;;1.30;1.23;;;;;;;2.20;95.06;98880.00;5070149;28;20642;-75
2022/01/05 05:35:23;;;;;;;2.30;0.80;;;;;;;2.18;94.81;98873.31;5069884;28;20195;-75
2022/01/05 05:37:48;;;;;;;3.07;0.77;;;;;;;2.18;94.35;98881.41;5069995;28;20645;-75
2022/01/05 05:40:13;;;;;;;2.27;1.20;;;;;;;2.14;94.33;98886.56;5069959;28;20170;-75
2022/01/05 05:42:38;;;;;;;0.37;0.37;;;;;;;2.13;93.52;98876.09;5070009;28;20205;-75
2022/01/05 05:45:05;;;;;;;1.90;0.90;;;;;;;2.16;92.71;98862.81;5069831;28;20210;-75
2022/01/05 05:47:30;;;;;;;2.40;2.20;;;;;;;2.13;92.67;98874.19;5069978;28;20702;-74
2022/01/05 05:49:55;;;;;;;1.10;0.40;;;;;;;2.16;92.25;98873.59;5070422;28;20512;-75
2022/01/05 05:52:21;;;;;;;3.83;0.33;;;;;;;2.15;92.01;98877.38;5073502;28;20672;-74
2022/01/05 05:54:46;;;;;;;1.27;1.17;;;;;;;2.11;92.25;98873.69;5073056;28;20206;-77
2022/01/05 05:57:12;;;;;;;0.57;0.57;;;;;;;2.11;91.38;98871.00;5073427;28;20174;-77
2022/01/05 05:59:37;;;;;;;3.70;1.20;;;;;;;2.07;92.12;98864.59;5072137;28;20178;-75
2022/01/05 06:02:03;;;;;;;10.83;0.97;;;;;;;2.05;92.35;98867.59;5072806;28;20179;-75
2022/01/05 06:04:29;;;;;;;2.07;1.67;;;;;;;2.05;92.42;98883.75;5079109;28;20173;-75
2022/01/05 06:06:55;;;;;;;3.83;1.00;;;;;;;2.06;92.70;98879.16;5074368;28;20186;-75
2022/01/05 06:09:20;;;;;;;0.40;0.40;;;;;;;2.03;92.65;98879.75;5073047;28;20273;-75
2022/01/05 06:11:46;;;;;;;1.13;0.50;;;;;;;2.05;92.36;98891.03;5073039;28;20170;-78
2022/01/05 06:14:11;;;;;;;0.77;0.60;;;;;;;2.07;91.41;98883.47;5074013;28;20171;-75
2022/01/05 06:16:36;;;;;;;4.47;0.83;;;;;;;2.04;91.57;98875.97;5073434;28;20221;-78
2022/01/05 06:19:02;;;;;;;1.67;1.33;;;;;;;2.04;91.71;98873.28;5073089;28;20206;-74
2022/01/05 06:21:28;;;;;;;0.30;0.30;;;;;;;2.02;91.32;98883.53;5073337;28;20202;-75
2022/01/05 06:23:53;;;;;;;0.40;0.40;;;;;;;2.02;91.09;98888.91;5073004;28;20920;-75
2022/01/05 06:26:20;;;;;;;6.63;1.67;;;;;;;1.96;91.58;98879.31;5072640;28;20186;-75
2022/01/05 06:28:46;;;;;;;0.40;0.37;;;;;;;1.91;92.09;98882.09;5072999;28;20170;-75
2022/01/05 06:31:11;;;;;;;0.60;0.60;;;;;;;1.86;92.78;98879.47;5071366;28;20186;-75
2022/01/05 06:33:36;;;;;;;0.60;0.60;;;;;;;1.80;93.69;98881.44;5072878;28;20170;-75
2022/01/05 06:36:02;;;;;;;3.03;0.83;;;;;;;1.77;93.64;98873.97;5072574;28;20202;-75
2022/01/05 06:38:27;;;;;;;0.63;0.30;;;;;;;1.83;92.70;98862.00;5072750;28;20619;-75
2022/01/05 06:40:52;;;;;;;0.40;0.40;;;;;;;1.83;92.54;98872.78;5072687;28;20253;-74
2022/01/05 06:43:18;;;;;;;7.73;1.10;;;;;;;1.82;92.83;98868.50;5072756;28;20615;-77
2022/01/05 06:45:43;;;;;;;6.70;1.87;;;;;;;1.81;92.83;98884.94;5068581;28;20600;-75
2022/01/05 06:48:08;;;;;;;0.40;0.40;;;;;;;1.80;93.16;98873.38;5071910;28;20201;-74
2022/01/05 06:50:34;;;;;;;1.00;1.00;;;;;;;1.79;92.73;98882.53;5070914;28;20400;-76
2022/01/05 06:52:59;;;;;;;0.40;0.40;;;;;;;1.76;93.87;98875.84;5072358;28;20178;-75
2022/01/05 06:55:25;;;;;;;0.57;0.50;;;;;;;1.75;94.08;98889.59;5070658;28;20206;-75
2022/01/05 06:57:51;;;;;;;2.03;1.90;;;;;;;1.68;95.05;98884.56;5059712;28;20193;-77
2022/01/05 07:00:17;;;;;;;1.07;0.60;;;;;;;1.64;95.44;98894.31;5072132;28;20218;-72
2022/01/05 07:02:43;;;;;;;1.17;1.07;;;;;;;1.59;95.71;98877.44;5071546;28;20972;-75
2022/01/05 07:05:09;;;;;;;7.87;0.97;;;;;;;1.57;96.33;98888.50;5071986;28;20516;-79
2022/01/05 07:07:35;;;;;;;3.53;0.60;;;;;;;1.56;96.96;98876.13;5072175;28;20178;-77
2022/01/05 07:10:00;;;;;;;0.63;0.63;;;;;;;1.61;96.69;98888.72;5071114;28;20182;-81
2022/01/05 07:12:25;;;;;;;3.23;0.73;;;;;;;1.60;96.76;98876.38;5071317;28;20768;-75
2022/01/05 07:14:51;;;;;;;2.47;1.83;;;;;;;1.60;96.95;98881.75;5071155;28;20278;-74
2022/01/05 07:17:16;;;;;;;4.63;0.90;;;;;;;1.61;96.77;98884.16;5072185;28;20269;-75
2022/01/05 07:19:42;;;;;;;5.13;2.23;;;;;;;1.62;96.57;98879.56;5070429;28;20187;-74
2022/01/05 07:22:07;;;;;;;3.13;1.83;;;;;;;1.64;96.84;98880.88;5066954;28;20193;-75
2022/01/05 07:24:32;;;;;;;2.17;1.17;;;;;;;1.65;96.66;98895.13;5071365;28;20187;-75
2022/01/05 07:26:57;;;;;;;1.43;1.33;;;;;;;1.66;96.63;98894.03;5071446;28;20190;-75
2022/01/05 07:29:23;;;;;;;14.70;1.63;;;;;;;1.66;96.62;98888.66;5071325;28;20181;-74
2022/01/05 07:31:49;;;;;;;0.40;0.40;;;;;;;1.66;96.23;98900.22;5071201;28;20189;-75
2022/01/05 07:34:14;;;;;;;4.27;1.83;;;;;;;1.67;96.29;98899.13;5071189;28;20170;-75
2022/01/05 07:36:40;;;;;;;5.90;2.37;;;;;;;1.71;96.04;98905.53;5063766;28;20301;-75
2022/01/05 07:39:06;;;;;;;1.77;0.80;;;;;;;1.73;95.85;98897.16;5071322;28;20193;-75
2022/01/05 07:41:33;;;;;;;7.22;1.00;;;;;;;1.78;95.71;98905.19;5070047;28;20411;-77
2022/01/05 07:43:58;;;;;;;9.17;3.23;;;;;;;1.79;94.90;98906.78;5070958;28;20226;-75
2022/01/05 07:46:24;;;;;;;0.60;0.60;;;;;;;1.80;95.20;98916.44;5068118;28;20985;-75
2022/01/05 07:48:49;;;;;;;0.23;0.23;;;;;;;1.77;95.21;98920.53;5065085;28;20182;-75
2022/01/05 07:51:14;;;;;;;3.60;2.40;;;;;;;1.82;95.52;98933.09;5067285;28;20536;-75
2022/01/05 07:53:40;;;;;;;2.00;1.23;;;;;;;1.87;94.92;98943.00;5071097;28;20175;-75
2022/01/05 07:56:07;;;;;;;1.20;0.83;;;;;;;1.89;95.28;98927.38;5069451;28;20750;-75
2022/01/05 07:58:32;;;;;;;28.43;1.80;;;;;;;1.88;95.40;98940.03;5069507;28;20511;-75
2022/01/05 08:00:58;;;;;;;0.27;0.27;;;;;;;1.91;95.54;98930.56;5070784;28;20542;-75
2022/01/05 08:03:25;;;;;;;7.17;2.20;;;;;;;1.97;94.73;98935.56;5070850;28;20163;-75
2022/01/05 08:05:51;;;;;;;6.77;1.50;;;;;;;2.01;94.79;98933.91;5070374;28;20170;-75
2022/01/05 08:08:17;;;;;;;7.67;2.17;;;;;;;2.04;94.14;98933.34;5070647;28;20171;-74
2022/01/05 08:10:42;;;;;;;5.70;2.77;;;;;;;2.05;94.46;98943.00;5070438;28;20256;-77
2022/01/05 08:13:08;;;;;;;5.47;0.73;;;;;;;2.06;94.50;98939.22;5069928;28;20622;-75
2022/01/05 08:15:33;;;;;;;7.10;1.20;;;;;;;2.12;94.21;98952.59;5070212;28;20198;-75
2022/01/05 08:17:59;;;;;;;4.63;0.50;;;;;;;2.17;93.62;98953.34;5070424;28;20167;-75
2022/01/05 08:20:24;;;;;;;2.40;1.47;;;;;;;2.20;93.82;98962.72;5070475;28;20174;-75
2022/01/05 08:22:49;;;;;;;9.37;1.10;;;;;;;2.19;93.36;98963.81;5070317;28;20661;-75
2022/01/05 08:25:17;;;;;;;3.47;2.57;;;;;;;2.20;93.73;98966.22;5070086;28;20227;-77
2022/01/05 08:27:47;;;;;;;0.17;0.10;;;;;;;2.24;93.54;98977.22;5070506;28;20167;-75
2022/01/05 08:30:25;;;;;;;1.10;1.10;;;;;;;2.25;94.08;98982.31;5070527;28;20811;-75
2022/01/05 08:32:53;;;;;;;0.90;0.90;;;;;;;2.23;94.45;98975.63;5069019;28;20174;-75
2022/01/05 08:35:21;;;;;;;4.40;3.67;;;;;;;2.22;94.17;98958.66;5069719;28;20222;-75
2022/01/05 08:37:48;;;;;;;1.17;1.17;;;;;;;2.20;93.94;98954.66;5062749;28;20968;-77
2022/01/05 08:40:18;;;;;;;2.00;1.87;;;;;;;2.22;93.68;98942.47;5070353;28;20167;-75
2022/01/05 08:42:44;;;;;;;2.60;0.60;;;;;;;2.25;93.62;98947.28;5070539;28;20175;-75
2022/01/05 08:45:09;;;;;;;3.87;3.17;;;;;;;2.30;93.17;98952.56;5069943;28;20909;-75
2022/01/05 08:47:35;;;;;;;3.33;2.77;;;;;;;2.35;92.99;98963.28;5070346;28;20174;-74
2022/01/05 08:50:00;;;;;;;8.03;2.27;;;;;;;2.41;91.75;98955.91;5069010;28;20174;-74
2022/01/05 08:52:26;;;;;;;2.77;2.57;;;;;;;2.45;91.27;98962.31;5068929;28;20170;-74
2022/01/05 08:54:51;;;;;;;3.80;2.17;;;;;;;2.46;91.28;98960.41;5069814;28;20194;-75
2022/01/05 08:57:17;;;;;;;3.73;1.80;;;;;;;2.50;90.63;98951.47;5069699;28;20541;-74
2022/01/05 08:59:44;;;;;;;16.33;4.93;;;;;;;2.52;89.98;98922.31;5070081;28;20183;-75
2022/01/05 09:02:13;;;;;;;2.47;2.17;;;;;;;2.53;90.19;98961.66;5069935;28;20642;-74
2022/01/05 09:04:39;;;;;;;2.27;2.07;;;;;;;2.61;89.94;98954.81;5069956;28;20464;-75
2022/01/05 09:07:05;;;;;;;1.87;1.77;;;;;;;2.64;89.19;98948.81;5068495;28;20171;-75
2022/01/05 09:09:30;;;;;;;7.47;3.73;;;;;;;2.67;89.47;98905.88;5070018;28;20436;-75
2022/01/05 09:11:55;;;;;;;17.37;2.23;;;;;;;2.71;89.34;98934.94;5070060;28;20173;-75
2022/01/05 09:14:21;;;;;;;3.73;1.47;;;;;;;2.73;89.74;98935.44;5069929;28;20170;-75
2022/01/05 09:16:46;;;;;;;5.83;3.23;;;;;;;2.75;89.04;98939.47;5068345;28;20735;-75
2022/01/05 09:19:11;;;;;;;4.07;1.33;;;;;;;2.75;89.41;98939.47;5070110;28;20232;-75
2022/01/05 09:21:37;;;;;;;6.63;1.90;;;;;;;2.73;89.71;98948.91;5069824;28;20171;-74
2022/01/05 09:24:03;;;;;;;0.60;0.60;;;;;;;2.79;89.97;98953.13;5070436;28;20189;-75
2022/01/05 09:26:28;;;;;;;4.33;1.47;;;;;;;2.86;89.73;98943.56;5073428;28;20175;-75
2022/01/05 09:28:54;;;;;;;3.73;2.77;;;;;;;2.85;89.59;98958.13;5073749;28;20824;-74
2022/01/05 09:31:19;;;;;;;1.30;1.30;;;;;;;2.78;90.41;98949.66;5073376;28;20171;-74
2022/01/05 09:33:44;;;;;;;3.50;1.30;;;;;;;2.67;89.60;98932.03;5073513;28;20240;-75
2022/01/05 09:36:16;;;;;;;8.30;1.17;;;;;;;2.65;89.84;98916.16;5073406;28;20636;-75
2022/01/05 09:44:09;;;;;;;4.10;1.87;;;;;;;2.61;90.39;98919.75;5073300;28;20404;-75
2022/01/05 09:47:19;;;;;;;0.70;0.70;;;;;;;2.67;90.83;98932.84;5073196;28;20174;-75
2022/01/05 09:50:03;;;;;;;8.50;1.67;;;;;;;2.68;91.19;98928.25;5065351;28;20190;-75
2022/01/05 09:52:31;;;;;;;1.27;1.17;;;;;;;2.68;91.90;98936.34;5073155;28;20178;-77
2022/01/05 09:54:57;;;;;;;2.07;1.97;;;;;;;2.67;91.84;98934.72;5072923;28;20198;-75
2022/01/05 09:57:23;;;;;;;0.43;0.40;;;;;;;2.68;91.78;98922.84;5072670;28;20185;-77
2022/01/05 09:59:50;;;;;;;1.13;1.13;;;;;;;2.72;92.15;98926.53;5073161;28;20598;-77
2022/01/05 10:02:16;;;;;;;1.17;1.10;;;;;;;2.74;92.32;98937.81;5066941;28;20190;-80
2022/01/05 10:04:41;;;;;;;3.23;2.10;;;;;;;2.72;92.32;98933.84;5056638;28;20174;-75
2022/01/05 10:07:08;;;;;;;4.13;3.27;;;;;;;2.72;92.28;98942.72;5072688;28;20266;-75
2022/01/05 10:09:36;;;;;;;1.70;1.60;;;;;;;2.75;92.50;98920.59;5072600;28;20212;-75
2022/01/05 10:12:03;;;;;;;1.23;1.13;;;;;;;2.78;92.68;98919.97;5071272;28;20178;-75
2022/01/05 10:14:29;;;;;;;3.27;2.37;;;;;;;2.80;92.52;98920.47;5065961;28;20195;-75
2022/01/05 10:17:02;;;;;;;13.70;3.60;;;;;;;2.88;92.23;98905.50;5064955;28;20206;-75
2022/01/05 10:19:27;;;;;;;12.10;2.80;;;;;;;3.00;92.34;98927.38;5072665;28;20257;-75
2022/01/05 10:21:52;;;;;;;1.03;1.03;;;;;;;3.06;91.15;98928.09;5072832;28;20193;-75
2022/01/05 10:24:42;;;;;;;1.17;1.10;;;;;;;3.09;91.97;98931.00;5072645;28;20182;-76
2022/01/05 10:27:07;;;;;;;7.10;0.90;;;;;;;2.97;92.32;98918.00;5072603;28;20562;-75
2022/01/05 10:29:33;;;;;;;5.23;1.70;;;;;;;2.87;93.82;98930.88;5072506;28;20641;-75
2022/01/05 10:32:01;;;;;;;0.50;0.50;;;;;;;2.79;95.85;98940.47;5072098;28;20201;-75
2022/01/05 10:34:32;;;;;;;0.57;0.57;;;;;;;2.63;97.94;98956.09;5071056;28;20178;-75
2022/01/05 10:37:05;;;;;;;8.40;2.43;;;;;;;2.13;100.00;98944.22;5071307;28;20213;-75
2022/01/05 10:39:35;;;;;;;1.50;1.40;;;;;;;1.88;100.00;98931.97;5072258;28;20182;-74
2022/01/05 10:42:12;;;;;;;1.33;1.27;;;;;;;1.69;100.00;98918.47;5072302;28;20190;-77
2022/01/05 10:44:41;;;;;;;1.03;0.90;;;;;;;1.44;100.00;98919.59;5072027;28;20419;-77
2022/01/05 10:47:06;;;;;;;0.87;0.87;;;;;;;1.40;100.00;98920.47;5072137;28;20171;-77
2022/01/05 10:49:34;;;;;;;0.93;0.93;;;;;;;1.37;100.00;98926.44;5072134;28;20432;-77
2022/01/05 10:52:19;;;;;;;1.10;1.00;;;;;;;1.41;100.00;98920.19;5072268;28;20205;-77
2022/01/05 10:54:45;;;;;;;2.80;1.70;;;;;;;1.46;100.00;98922.03;5071645;28;20436;-77
2022/01/05 10:57:12;;;;;;;1.00;1.00;;;;;;;1.54;100.00;98913.28;5065867;28;20909;-74
2022/01/05 10:59:42;;;;;;;0.70;0.70;;;;;;;1.59;100.00;98905.19;5071652;28;20174;-74
2022/01/05 11:02:31;;;;;;;1.20;1.03;;;;;;;1.67;100.00;98915.28;5071729;28;20421;-74
2022/01/05 11:04:59;;;;;;;1.67;1.23;;;;;;;1.67;100.00;98920.66;5071379;28;20435;-74
2022/01/05 11:07:26;;;;;;;2.83;2.10;;;;;;;1.65;100.00;98917.47;5071734;28;20424;-74
2022/01/05 11:10:01;;;;;;;1.20;1.20;;;;;;;1.67;100.00;98909.88;5071842;28;20268;-75
2022/01/05 11:12:37;;;;;;;4.07;3.03;;;;;;;1.72;100.00;98912.50;5068435;28;20178;-77
2022/01/05 11:15:27;;;;;;;3.57;2.93;;;;;;;1.78;100.00;98916.75;5071446;28;20464;-77
2022/01/05 11:18:18;;;;;;;1.40;1.33;;;;;;;1.82;100.00;98922.34;5071836;28;20420;-77
2022/01/05 11:20:58;;;;;;;0.97;0.93;;;;;;;1.81;100.00;98920.75;5071840;28;20412;-77
2022/01/05 11:23:25;;;;;;;2.10;1.67;;;;;;;1.77;100.00;98917.03;5070751;28;20546;-77
2022/01/05 11:25:53;;;;;;;1.30;1.20;;;;;;;1.69;100.00;98921.16;5071503;28;20841;-78
2022/01/05 11:28:21;;;;;;;1.43;1.40;;;;;;;1.56;100.00;98913.00;5071690;28;20384;-77
2022/01/05 11:30:49;;;;;;;1.90;1.67;;;;;;;1.50;100.00;98898.81;5071377;28;20923;-78
2022/01/05 11:33:14;;;;;;;4.77;1.40;;;;;;;1.53;100.00;98925.16;5071255;28;20881;-77
2022/01/05 11:35:40;;;;;;;0.77;0.77;;;;;;;1.54;100.00;98910.59;5065145;28;20529;-74
2022/01/05 11:38:08;;;;;;;2.13;2.03;;;;;;;1.52;100.00;98928.13;5071538;28;20269;-74
2022/01/05 11:40:36;;;;;;;1.77;1.57;;;;;;;1.32;100.00;98921.13;5071626;28;20924;-78
2022/01/05 11:43:05;;;;;;;2.70;1.93;;;;;;;1.18;100.00;98934.47;5071544;28;20432;-77